Latest Weather Observations for Bairnsdale

IDV60801

Issued at 5:31 pm EST Wednesday 27 May 2015 (issued every 30 minutes, with the page automatically refreshed every 10 minutes)

About weather observations | Map of weather stations | Latest weather observations for VIC | Other Formats
Station Details ID: 085279 Name: BAIRNSDALE AIRPORT Lat: -37.88 Lon: 147.57 Height: 49.4 m
Data from the previous 72 hours. | See also: Recent months at Bairnsdale
Date/Time
EST
Temp
°C
App
Temp
°C
Dew
Point
Rel
Hum
%
Delta-T
°C
Wind Press
QNH
hPa
Press
MSL
hPa
Rain
since 9 am
mm
Dir
 
Spd
km/h
Gust
km/h
Spd
kts
Gust
kts
27/05:30pm 14.5 12.1 8.7 68 2.9 NNW 11 15 6 8 1018.8 1018.8 0.0
27/05:00pm 15.1 13.2 9.0 67 3.1 NNW 9 11 5 6 1018.5 1018.5 0.0
27/04:30pm 16.5 15.1 9.4 63 3.7 N 7 9 4 5 1018.4 1018.4 0.0
27/04:00pm 16.7 15.6 10.1 65 3.5 N 6 7 3 4 1018.5 1018.5 0.0
27/03:30pm 17.0 15.8 10.4 65 3.5 NNW 7 11 4 6 1018.4 1018.4 0.0
27/03:00pm 17.6 14.7 9.5 59 4.2 NW 15 20 8 11 1018.3 1018.3 0.0
27/02:30pm 18.2 14.9 9.5 57 4.6 NNW 17 24 9 13 1018.3 1018.3 0.0
27/02:00pm 19.5 16.3 10.0 54 5.1 NNW 17 24 9 13 1018.5 1018.5 0.0
27/01:30pm 18.3 15.0 9.6 57 4.6 NNW 17 24 9 13 1018.7 1018.7 0.0
27/01:00pm 17.5 14.2 9.4 59 4.2 NNW 17 22 9 12 1019.1 1019.1 0.0
27/12:30pm 18.1 15.1 9.2 56 4.7 NNW 15 19 8 10 1019.5 1019.5 0.0
27/12:00pm 18.0 13.9 8.6 54 4.8 NNW 20 28 11 15 1020.1 1020.1 0.0
27/11:30am 18.0 16.6 9.6 58 4.4 NNW 7 15 4 8 1020.5 1020.5 0.0
27/11:00am 16.9 14.8 8.1 56 4.5 N 9 13 5 7 1021.0 1021.0 0.0
27/10:30am 15.8 13.7 8.1 60 3.9 NE 9 13 5 7 1021.2 1021.2 0.0
27/10:00am 13.2 10.9 7.6 69 2.7 NNE 9 13 5 7 1021.7 1021.7 0.0
27/09:30am 12.1 9.8 7.6 74 2.2 N 9 13 5 7 1021.8 1021.8 0.0
27/09:00am 10.5 8.2 7.4 81 1.5 NNE 9 13 5 7 1021.8 1021.8 0.0
27/08:30am 8.4 5.9 6.5 88 0.9 NNE 9 11 5 6 1021.9 1021.9 0.0
27/08:00am 7.8 5.6 7.8 100 0.0 NNE 9 13 5 7 1021.9 1021.9 0.0
27/07:30am 5.9 3.6 5.9 100 0.0 N 7 9 4 5 1022.0 1022.0 0.0
27/07:00am 5.3 3.1 5.3 100 0.0 N 6 9 3 5 1022.1 1022.1 0.0
27/06:30am 5.5 3.2 5.5 100 0.0 NNW 7 9 4 5 1021.9 1021.9 0.0
27/06:00am 5.3 2.1 5.3 100 0.0 NW 11 13 6 7 1022.0 1022.0 0.0
27/05:30am 6.0 3.0 6.0 100 0.0 NNW 11 11 6 6 1022.1 1022.1 0.0
27/05:00am 5.6 3.3 5.6 100 0.0 NW 7 9 4 5 1022.1 1022.1 0.0
27/04:30am 5.7 3.4 5.7 100 0.0 NW 7 11 4 6 1022.2 1022.2 0.0
27/04:00am 6.5 4.0 6.5 100 0.0 NNW 9 13 5 7 1022.1 1022.1 0.0
27/03:30am 6.4 4.4 6.4 100 0.0 N 6 7 3 4 1022.4 1022.4 0.0
27/03:00am 6.5 4.6 6.5 100 0.0 NW 6 9 3 5 1022.8 1022.8 0.0
27/02:30am 6.3 5.5 6.3 100 0.0 CALM 0 2 0 1 1023.0 1023.0 0.0
27/02:00am 6.0 3.4 5.9 99 0.0 NW 9 11 5 6 1023.4 1023.5 0.0
27/01:30am 7.0 4.5 6.4 96 0.3 NE 9 9 5 5 1023.6 1023.7 0.0
27/01:00am 7.0 5.2 7.0 100 0.0 NNW 6 7 3 4 1023.9 1024.0 0.0
27/12:30am 6.7 5.2 6.6 99 0.0 NNW 4 7 2 4 1024.0 1024.1 0.0
27/12:00am 6.9 5.3 6.5 97 0.2 NNW 4 6 2 3 1024.4 1024.5 0.0
 
Date/Time
EST
Temp
°C
App
Temp
°C
Dew
Point
Rel
Hum
%
Delta-T
°C
Wind Press
QNH
hPa
Press
MSL
hPa
Rain
since 9 am
mm
Dir
 
Spd
km/h
Gust
km/h
Spd
kts
Gust
kts
26/11:30pm 7.7 6.3 7.3 97 0.2 N 4 6 2 3 1024.8 1024.9 0.0
26/11:00pm 7.7 5.4 7.3 97 0.2 SW 9 9 5 5 1024.6 1024.7 0.0
26/10:30pm 7.8 5.4 7.2 96 0.3 S 9 9 5 5 1024.5 1024.6 0.0
26/10:00pm 8.0 7.4 7.2 95 0.4 CALM 0 0 0 0 1024.9 1025.0 0.0
26/09:30pm 7.5 6.7 6.3 92 0.5 CALM 0 0 0 0 1025.1 1025.2 0.0
26/09:00pm 8.1 5.6 6.6 90 0.7 NE 9 11 5 6 1025.2 1025.3 0.0
26/08:30pm 8.7 6.8 6.7 87 0.9 NE 6 7 3 4 1025.4 1025.5 0.0
26/08:00pm 9.0 7.2 7.0 87 0.9 N 6 9 3 5 1025.8 1025.9 0.0
26/07:30pm 7.8 5.9 6.6 92 0.6 N 6 7 3 4 1025.9 1026.0 0.0
26/07:00pm 7.9 5.8 6.5 91 0.6 N 7 9 4 5 1026.1 1026.2 0.0
26/06:30pm 8.0 6.2 7.2 95 0.4 ENE 6 7 3 4 1026.2 1026.3 0.0
26/06:00pm 6.7 4.5 5.2 90 0.7 E 6 7 3 4 1026.3 1026.4 0.0
26/05:30pm 8.0 5.9 6.0 87 0.9 ESE 6 7 3 4 1026.1 1026.2 0.0
26/05:00pm 10.2 8.1 6.7 79 1.6 ESE 7 9 4 5 1026.2 1026.3 0.0
26/04:30pm 11.8 9.9 6.9 72 2.3 ESE 6 9 3 5 1026.3 1026.4 0.0
26/04:00pm 13.5 10.6 6.4 62 3.4 SE 11 15 6 8 1025.9 1026.0 0.0
26/03:30pm 14.5 11.2 6.3 58 4.0 SE 13 17 7 9 1025.9 1026.0 0.0
26/03:00pm 15.2 12.6 6.2 55 4.3 SE 9 11 5 6 1026.1 1026.2 0.0
26/02:30pm 15.5 13.1 5.4 51 4.8 SE 7 11 4 6 1026.4 1026.5 0.0
26/02:00pm 15.2 13.1 6.0 54 4.4 SSW 6 7 3 4 1026.4 1026.5 0.0
26/01:30pm 15.9 14.1 5.2 49 5.1 NNE 4 7 2 4 1026.7 1026.8 0.0
26/01:00pm 15.5 13.4 5.7 52 4.7 NNW 6 9 3 5 1027.1 1027.2 0.0
26/12:30pm 15.5 13.1 5.4 51 4.8 NNW 7 11 4 6 1027.6 1027.7 0.0
26/12:00pm 14.7 12.0 5.5 54 4.3 NW 9 11 5 6 1028.2 1028.3 0.0
26/11:30am 13.8 10.5 4.7 54 4.2 NW 11 15 6 8 1028.8 1028.9 0.0
26/11:00am 12.6 9.0 4.8 59 3.6 NW 13 17 7 9 1029.5 1029.5 0.0
26/10:30am 11.4 8.1 4.6 63 3.1 NW 11 17 6 9 1029.7 1029.7 0.0
26/10:00am 10.3 7.4 4.9 69 2.4 NW 9 11 5 6 1029.8 1029.8 0.0
26/09:30am 7.7 4.3 3.9 77 1.6 NW 11 15 6 8 1030.1 1030.1 0.0
26/09:00am 5.9 1.9 3.1 82 1.2 NNW 13 17 7 9 1030.2 1030.2 0.0
26/08:30am 5.0 1.7 2.2 82 1.1 NNW 9 11 5 6 1030.1 1030.1 0.0
26/08:00am 3.1 0.0 1.5 89 0.6 NW 7 9 4 5 1030.2 1030.2 0.0
26/07:30am 2.0 0.2 1.3 95 0.3 CALM 0 7 0 4 1030.0 1030.0 0.0
26/07:00am 1.7 -0.9 0.7 93 0.4 NNW 4 6 2 3 1029.8 1029.8 0.0
26/06:30am 2.1 -1.5 0.9 92 0.5 NNW 9 11 5 6 1029.5 1029.5 0.0
26/06:00am 2.3 -0.9 0.8 90 0.6 NNW 7 9 4 5 1029.2 1029.3 0.0
26/05:30am 1.8 -1.8 0.6 92 0.4 NW 9 13 5 7 1029.3 1029.4 0.0
26/05:00am 2.1 -1.0 1.4 95 0.3 NW 7 9 4 5 1029.3 1029.4 0.0
26/04:30am 2.6 -0.3 1.6 93 0.4 WNW 6 7 3 4 1029.2 1029.3 0.0
26/04:00am 3.4 0.4 2.2 92 0.5 N 7 9 4 5 1029.3 1029.4 0.0
26/03:30am 2.8 -0.2 1.8 93 0.4 NNW 7 9 4 5 1029.2 1029.3 0.0
26/03:00am 2.8 -0.2 2.2 96 0.2 NNW 7 9 4 5 1029.6 1029.6 0.0
26/02:30am 2.9 -0.4 2.2 95 0.3 NNW 9 11 5 6 1029.7 1029.7 0.0
26/02:00am 3.4 0.0 2.1 91 0.5 NW 9 13 5 7 1029.7 1029.7 0.0
26/01:30am 4.1 0.1 3.1 93 0.4 NW 13 17 7 9 1029.7 1029.7 0.0
26/01:00am 3.5 -0.1 3.1 97 0.2 NW 11 15 6 8 1029.7 1029.7 0.0
26/12:30am 3.1 -0.1 2.8 98 0.1 NW 9 13 5 7 1029.8 1029.8 0.0
26/12:00am 3.2 0.0 2.9 98 0.1 NW 9 11 5 6 1030.1 1030.1 0.0
 
Date/Time
EST
Temp
°C
App
Temp
°C
Dew
Point
Rel
Hum
%
Delta-T
°C
Wind Press
QNH
hPa
Press
MSL
hPa
Rain
since 9 am
mm
Dir
 
Spd
km/h
Gust
km/h
Spd
kts
Gust
kts
25/11:30pm 3.3 0.0 2.7 96 0.2 NNW 9 11 5 6 1030.3 1030.3 0.0
25/11:00pm 4.1 0.5 2.9 92 0.5 NW 11 13 6 7 1030.4 1030.4 0.0
25/10:30pm 5.0 1.6 3.8 92 0.5 NW 11 15 6 8 1030.4 1030.4 0.0
25/10:00pm 5.2 0.7 4.2 93 0.4 WNW 17 19 9 10 1030.7 1030.7 0.0
25/09:30pm 5.3 1.5 4.0 91 0.5 NW 13 17 7 9 1030.7 1030.7 0.0
25/09:00pm 5.6 1.5 4.1 90 0.6 NW 15 17 8 9 1030.7 1030.7 0.0
25/08:30pm 5.9 1.8 4.2 89 0.7 NW 15 19 8 10 1030.6 1030.6 0.0
25/08:00pm 6.3 1.8 4.3 87 0.9 NW 17 19 9 10 1030.7 1030.7 0.0
25/07:30pm 5.9 2.1 4.1 88 0.8 NW 13 15 7 8 1030.4 1030.4 0.0
25/07:00pm 6.8 3.1 4.6 86 0.9 NW 13 15 7 8 1030.0 1030.0 0.0
25/06:30pm 6.9 3.2 4.6 85 1.0 NW 13 15 7 8 1029.9 1029.9 0.0
25/06:00pm 7.4 3.9 5.4 87 0.9 NW 13 15 7 8 1029.7 1029.7 0.0
25/05:30pm 8.6 6.2 6.9 89 0.8 NW 9 11 5 6 1029.5 1029.5 0.0
25/05:00pm 10.1 8.3 7.9 86 1.1 NW 7 9 4 5 1029.2 1029.3 0.0
25/04:30pm 12.8 11.1 8.5 75 2.1 NNW 7 9 4 5 1029.1 1029.2 0.0
25/04:00pm 13.3 11.6 8.4 72 2.4 NNW 7 9 4 5 1029.1 1029.2 0.0
25/03:30pm 12.6 10.9 8.3 75 2.1 NW 7 9 4 5 1029.3 1029.4 0.0
25/03:00pm 13.0 11.1 7.7 70 2.6 N 7 11 4 6 1029.2 1029.3 0.0
25/02:30pm 12.6 10.6 7.3 70 2.6 NW 7 9 4 5 1029.5 1029.5 0.0
25/02:00pm 12.3 10.3 7.2 71 2.4 NNW 7 9 4 5 1029.7 1029.7 0.0
25/01:30pm 12.3 10.2 6.6 68 2.7 NW 7 11 4 6 1029.9 1029.9 0.0
25/01:00pm 12.4 10.3 6.7 68 2.7 NW 7 9 4 5 1029.8 1029.8 0.0
25/12:30pm 11.6 8.6 5.9 68 2.7 NW 11 13 6 7 1030.3 1030.3 0.0
25/12:00pm 10.9 7.8 5.7 70 2.4 NW 11 17 6 9 1030.6 1030.6 0.0
25/11:30am 10.8 7.0 5.6 70 2.4 NW 15 19 8 10 1031.0 1031.0 0.0
25/11:00am 10.5 7.1 6.1 74 2.0 WNW 13 17 7 9 1031.9 1031.9 0.0
25/10:30am 9.4 6.0 5.9 79 1.6 NW 13 17 7 9 1031.8 1031.8 0.0
25/10:00am 7.8 4.7 5.4 85 1.1 NW 11 15 6 8 1031.6 1031.6 0.0
25/09:30am 7.5 4.0 5.3 86 1.0 NW 13 17 7 9 1031.6 1031.6 0.0
25/09:00am 6.5 2.9 5.0 90 0.7 NW 13 17 7 9 1031.7 1031.7 0.2
25/08:30am 4.7 0.9 4.0 95 0.3 NW 13 17 7 9 1031.8 1031.8 0.2
25/08:00am 4.2 1.1 3.6 96 0.2 NNW 9 11 5 6 1031.4 1031.4 0.2
25/07:30am 4.1 1.3 3.1 93 0.4 NNW 7 11 4 6 1031.5 1031.5 0.2
25/07:00am 4.4 0.5 3.5 94 0.4 NW 13 19 7 10 1031.7 1031.7 0.2
25/06:30am 3.8 0.3 3.7 99 0.0 WNW 11 13 6 7 1031.2 1031.2 0.2
25/06:00am 3.7 -0.1 3.7 100 0.0 WNW 13 17 7 9 1031.2 1031.2 0.2
25/05:30am 2.6 -0.7 2.5 99 0.0 NNW 9 11 5 6 1030.7 1030.7 0.2
25/05:00am 3.3 0.7 3.3 100 0.0 NW 6 7 3 4 1030.6 1030.6 0.2
25/04:30am 3.4 0.3 3.4 100 0.0 WNW 9 11 5 6 1030.5 1030.5 0.2
25/04:00am 2.7 -0.6 2.7 100 0.0 WNW 9 11 5 6 1030.8 1030.8 0.2
25/03:30am 3.8 0.7 3.8 100 0.0 WNW 9 11 5 6 1030.7 1030.7 0.2
25/03:00am 4.0 1.4 4.0 100 0.0 WNW 7 9 4 5 1030.8 1030.8 0.2
25/02:30am 3.7 0.6 3.7 100 0.0 WNW 9 11 5 6 1031.0 1031.0 0.2
25/02:00am 3.7 -0.1 3.7 100 0.0 WNW 13 15 7 8 1030.8 1030.8 0.2
25/01:30am 2.7 -0.2 2.7 100 0.0 NW 7 11 4 6 1030.7 1030.7 0.2
25/01:00am 2.7 -0.2 2.7 100 0.0 WNW 7 11 4 6 1030.9 1030.9 0.2
25/12:54am 2.6 -0.3 2.6 100 0.0 WSW 7 11 4 6 1030.8 1030.8 0.2
25/12:30am 2.7 -0.6 2.7 100 0.0 WSW 9 17 5 9 1030.9 1030.9 0.2
25/12:29am 2.8 -0.8 2.8 100 0.0 WSW 11 17 6 9 1030.9 1030.9 0.2
25/12:00am 3.8 0.7 3.8 100 0.0 WNW 9 13 5 7 1030.9 1030.9 0.2
 
Date/Time
EST
Temp
°C
App
Temp
°C
Dew
Point
Rel
Hum
%
Delta-T
°C
Wind Press
QNH
hPa
Press
MSL
hPa
Rain
since 9 am
mm
Dir
 
Spd
km/h
Gust
km/h
Spd
kts
Gust
kts
24/11:55pm 3.2 0.0 3.2 100 0.0 WNW 9 11 5 6 1030.9 1030.9 0.2
24/11:30pm 3.5 0.8 3.5 100 0.0 W 7 9 4 5 1030.8 1030.8 0.2
24/11:27pm 3.9 0.9 3.9 100 0.0 WNW 9 11 5 6 1030.8 1030.8 0.2
24/11:15pm 3.6 0.5 3.6 100 0.0 WNW 9 13 5 7 1030.7 1030.7 0.2
24/11:00pm 3.4 0.3 3.4 100 0.0 WNW 9 11 5 6 1030.7 1030.7 0.2
24/10:30pm 2.6 -0.7 2.6 100 0.0 NW 9 11 5 6 1030.9 1030.9 0.2
24/10:00pm 4.1 0.7 4.1 100 0.0 NNW 11 13 6 7 1030.9 1030.9 0.2
24/09:32pm 3.4 0.3 3.4 100 0.0 NW 9 11 5 6 1031.1 1031.1 0.2
24/09:30pm 3.6 0.5 3.6 100 0.0 NW 9 11 5 6 1031.0 1031.0 0.2
24/09:29pm 3.6 0.5 3.6 100 0.0 NW 9 11 5 6 1031.0 1031.0 0.2
24/09:16pm 3.1 -0.1 3.1 100 0.0 NW 9 11 5 6 1031.0 1031.0 0.2
24/09:11pm 3.0 -0.2 3.0 100 0.0 NW 9 9 5 5 1031.0 1031.0 0.2
24/09:00pm 3.1 -0.1 3.1 100 0.0 NW 9 9 5 5 1031.1 1031.1 0.2
24/08:58pm 3.1 -0.1 3.1 100 0.0 NW 9 9 5 5 1031.1 1031.1 0.2
24/08:57pm 3.1 -0.1 3.1 100 0.0 NW 9 9 5 5 1031.1 1031.1 0.2
24/08:30pm 4.1 1.7 4.1 100 0.0 NW 6 9 3 5 1031.3 1031.3 0.2
24/08:00pm 3.1 1.2 3.0 99 0.0 SW 2 6 1 3 1031.1 1031.1 0.2
24/07:36pm 3.9 1.8 3.8 99 0.0 SW 4 6 2 3 1030.9 1030.9 0.2
24/07:30pm 4.0 1.5 3.9 99 0.0 SW 6 7 3 4 1031.0 1031.0 0.2
24/07:00pm 3.7 1.1 3.4 98 0.1 NW 6 7 3 4 1031.2 1031.2 0.2
24/06:30pm 4.7 3.4 4.1 96 0.3 CALM 0 0 0 0 1031.0 1031.0 0.2
24/06:00pm 5.4 4.2 4.5 94 0.4 CALM 0 0 0 0 1030.8 1030.8 0.2

Other Formats:

Comma delimited format used in spreadsheet applications
http://www.bom.gov.au/fwo/IDV60801/IDV60801.94912.axf

JavaScript Object Notation format (JSON) in row-major order
http://www.bom.gov.au/fwo/IDV60801/IDV60801.94912.json